sensor_id;sensor_type;location;lat;lon;timestamp;temperature;humidity
1415;DHT22;702;49.466;11.086;2023-02-15T00:00:12;0.20;99.90
1415;DHT22;702;49.466;11.086;2023-02-15T00:02:40;0.30;99.90
1415;DHT22;702;49.466;11.086;2023-02-15T00:05:08;0.30;99.90
1415;DHT22;702;49.466;11.086;2023-02-15T00:07:37;0.20;99.90
1415;DHT22;702;49.466;11.086;2023-02-15T00:10:06;0.30;99.90
1415;DHT22;702;49.466;11.086;2023-02-15T00:12:35;0.30;99.90
1415;DHT22;702;49.466;11.086;2023-02-15T00:15:04;0.20;99.90
1415;DHT22;702;49.466;11.086;2023-02-15T00:17:33;0.20;99.90
1415;DHT22;702;49.466;11.086;2023-02-15T00:20:00;0.20;99.90
1415;DHT22;702;49.466;11.086;2023-02-15T00:22:28;0.20;99.90
1415;DHT22;702;49.466;11.086;2023-02-15T00:24:57;0.20;99.90
1415;DHT22;702;49.466;11.086;2023-02-15T00:27:25;0.10;99.90
1415;DHT22;702;49.466;11.086;2023-02-15T00:29:52;0.10;99.90
1415;DHT22;702;49.466;11.086;2023-02-15T00:32:20;0.10;99.90
1415;DHT22;702;49.466;11.086;2023-02-15T00:34:47;0.00;99.90
1415;DHT22;702;49.466;11.086;2023-02-15T00:37:15;0.00;99.90
1415;DHT22;702;49.466;11.086;2023-02-15T00:39:45;0.10;99.90
1415;DHT22;702;49.466;11.086;2023-02-15T00:42:16;0.20;99.90
1415;DHT22;702;49.466;11.086;2023-02-15T00:44:44;0.20;99.90
1415;DHT22;702;49.466;11.086;2023-02-15T00:47:11;0.20;99.90
1415;DHT22;702;49.466;11.086;2023-02-15T00:49:39;0.10;99.90
1415;DHT22;702;49.466;11.086;2023-02-15T00:52:06;0.10;99.90
1415;DHT22;702;49.466;11.086;2023-02-15T00:54:37;0.10;99.90
1415;DHT22;702;49.466;11.086;2023-02-15T00:57:05;0.10;99.90
1415;DHT22;702;49.466;11.086;2023-02-15T00:59:34;0.10;99.90
1415;DHT22;702;49.466;11.086;2023-02-15T01:02:02;0.10;99.90
1415;DHT22;702;49.466;11.086;2023-02-15T01:04:30;0.20;99.90
1415;DHT22;702;49.466;11.086;2023-02-15T01:06:58;0.10;99.90
1415;DHT22;702;49.466;11.086;2023-02-15T01:09:28;0.10;99.90
1415;DHT22;702;49.466;11.086;2023-02-15T01:11:57;0.10;99.90
1415;DHT22;702;49.466;11.086;2023-02-15T01:14:26;0.10;99.90
1415;DHT22;702;49.466;11.086;2023-02-15T01:16:58;0.00;99.90
1415;DHT22;702;49.466;11.086;2023-02-15T01:19:27;-0.20;99.90
1415;DHT22;702;49.466;11.086;2023-02-15T01:21:57;-0.20;99.90
1415;DHT22;702;49.466;11.086;2023-02-15T01:24:25;-0.20;99.90
1415;DHT22;702;49.466;11.086;2023-02-15T01:26:53;-0.10;99.90
1415;DHT22;702;49.466;11.086;2023-02-15T01:29:21;-0.10;99.90
1415;DHT22;702;49.466;11.086;2023-02-15T01:31:49;0.00;99.90
1415;DHT22;702;49.466;11.086;2023-02-15T01:34:18;0.00;99.90
1415;DHT22;702;49.466;11.086;2023-02-15T01:36:50;-0.10;99.90
1415;DHT22;702;49.466;11.086;2023-02-15T01:39:18;-0.10;99.90
1415;DHT22;702;49.466;11.086;2023-02-15T01:41:49;-0.20;99.90
1415;DHT22;702;49.466;11.086;2023-02-15T01:44:45;-0.20;99.90
1415;DHT22;702;49.466;11.086;2023-02-15T01:47:17;-0.10;99.90
1415;DHT22;702;49.466;11.086;2023-02-15T01:49:59;-0.10;99.90
1415;DHT22;702;49.466;11.086;2023-02-15T01:52:40;-0.20;99.90
1415;DHT22;702;49.466;11.086;2023-02-15T01:55:14;-0.10;99.90
1415;DHT22;702;49.466;11.086;2023-02-15T01:57:42;-0.20;99.90
1415;DHT22;702;49.466;11.086;2023-02-15T02:00:15;-0.20;99.90
1415;DHT22;702;49.466;11.086;2023-02-15T02:02:45;-0.20;99.90
1415;DHT22;702;49.466;11.086;2023-02-15T02:05:15;-0.20;99.90
1415;DHT22;702;49.466;11.086;2023-02-15T02:08:03;-0.20;99.90
1415;DHT22;702;49.466;11.086;2023-02-15T02:10:31;-0.30;99.90
1415;DHT22;702;49.466;11.086;2023-02-15T02:13:06;-0.30;99.90
1415;DHT22;702;49.466;11.086;2023-02-15T02:15:40;-0.40;99.90
1415;DHT22;702;49.466;11.086;2023-02-15T02:18:25;-0.30;99.90
1415;DHT22;702;49.466;11.086;2023-02-15T02:21:23;-0.30;99.90
1415;DHT22;702;49.466;11.086;2023-02-15T02:24:36;-0.20;99.90
1415;DHT22;702;49.466;11.086;2023-02-15T02:27:37;-0.20;99.90
1415;DHT22;702;49.466;11.086;2023-02-15T02:30:27;-0.10;99.90
1415;DHT22;702;49.466;11.086;2023-02-15T02:33:20;-0.10;99.90
1415;DHT22;702;49.466;11.086;2023-02-15T02:36:08;-0.10;99.90
1415;DHT22;702;49.466;11.086;2023-02-15T02:39:09;-0.10;99.90
1415;DHT22;702;49.466;11.086;2023-02-15T02:41:50;-0.10;99.90
1415;DHT22;702;49.466;11.086;2023-02-15T02:44:26;-0.10;99.90
1415;DHT22;702;49.466;11.086;2023-02-15T02:47:00;-0.20;99.90
1415;DHT22;702;49.466;11.086;2023-02-15T02:49:35;-0.30;99.90
1415;DHT22;702;49.466;11.086;2023-02-15T02:52:05;-0.40;99.90
1415;DHT22;702;49.466;11.086;2023-02-15T02:54:56;-0.50;99.90
1415;DHT22;702;49.466;11.086;2023-02-15T02:57:24;-0.50;99.90
1415;DHT22;702;49.466;11.086;2023-02-15T02:59:56;-0.50;99.90
1415;DHT22;702;49.466;11.086;2023-02-15T03:02:30;-0.50;99.90
1415;DHT22;702;49.466;11.086;2023-02-15T03:05:03;-0.50;99.90
1415;DHT22;702;49.466;11.086;2023-02-15T03:07:35;-0.70;99.90
1415;DHT22;702;49.466;11.086;2023-02-15T03:10:05;-0.70;99.90
1415;DHT22;702;49.466;11.086;2023-02-15T03:12:35;-0.70;99.90
1415;DHT22;702;49.466;11.086;2023-02-15T03:15:06;-0.60;99.90
1415;DHT22;702;49.466;11.086;2023-02-15T03:17:40;-0.60;99.90
1415;DHT22;702;49.466;11.086;2023-02-15T03:20:30;-0.60;99.90
1415;DHT22;702;49.466;11.086;2023-02-15T03:23:06;-0.60;99.90
1415;DHT22;702;49.466;11.086;2023-02-15T03:25:39;-0.50;99.90
1415;DHT22;702;49.466;11.086;2023-02-15T03:28:11;-0.40;99.90
1415;DHT22;702;49.466;11.086;2023-02-15T03:30:44;-0.30;99.90
1415;DHT22;702;49.466;11.086;2023-02-15T03:33:13;-0.20;99.90
1415;DHT22;702;49.466;11.086;2023-02-15T03:35:48;-0.20;99.90
1415;DHT22;702;49.466;11.086;2023-02-15T03:38:34;-0.20;99.90
1415;DHT22;702;49.466;11.086;2023-02-15T03:41:05;-0.30;99.90
1415;DHT22;702;49.466;11.086;2023-02-15T03:43:42;-0.20;99.90
1415;DHT22;702;49.466;11.086;2023-02-15T03:46:18;-0.30;99.90
1415;DHT22;702;49.466;11.086;2023-02-15T03:48:52;-0.20;99.90
1415;DHT22;702;49.466;11.086;2023-02-15T03:51:27;-0.20;99.90
1415;DHT22;702;49.466;11.086;2023-02-15T03:54:07;-0.30;99.90
1415;DHT22;702;49.466;11.086;2023-02-15T03:56:36;-0.40;99.90
1415;DHT22;702;49.466;11.086;2023-02-15T03:59:06;-0.40;99.90
1415;DHT22;702;49.466;11.086;2023-02-15T04:02:03;-0.40;99.90
1415;DHT22;702;49.466;11.086;2023-02-15T04:04:38;-0.40;99.90
1415;DHT22;702;49.466;11.086;2023-02-15T04:07:09;-0.40;99.90
1415;DHT22;702;49.466;11.086;2023-02-15T04:09:37;-0.40;99.90
1415;DHT22;702;49.466;11.086;2023-02-15T04:12:23;-0.40;99.90
1415;DHT22;702;49.466;11.086;2023-02-15T04:14:51;-0.50;99.90
1415;DHT22;702;49.466;11.086;2023-02-15T04:17:36;-0.50;99.90
1415;DHT22;702;49.466;11.086;2023-02-15T04:20:04;-0.60;99.90
1415;DHT22;702;49.466;11.086;2023-02-15T04:22:52;-0.60;99.90
1415;DHT22;702;49.466;11.086;2023-02-15T04:25:37;-0.70;99.90
1415;DHT22;702;49.466;11.086;2023-02-15T04:28:05;-0.80;99.90
1415;DHT22;702;49.466;11.086;2023-02-15T04:30:36;-0.70;99.90
1415;DHT22;702;49.466;11.086;2023-02-15T04:33:03;-0.80;99.90
1415;DHT22;702;49.466;11.086;2023-02-15T04:35:31;-0.80;99.90
1415;DHT22;702;49.466;11.086;2023-02-15T04:38:03;-0.90;99.90
1415;DHT22;702;49.466;11.086;2023-02-15T04:40:30;-0.80;99.90
1415;DHT22;702;49.466;11.086;2023-02-15T04:42:58;-0.90;99.90
1415;DHT22;702;49.466;11.086;2023-02-15T04:45:25;-0.90;99.90
1415;DHT22;702;49.466;11.086;2023-02-15T04:47:54;-0.90;99.90
1415;DHT22;702;49.466;11.086;2023-02-15T04:50:21;-0.90;99.90
1415;DHT22;702;49.466;11.086;2023-02-15T04:52:50;-0.90;99.90
1415;DHT22;702;49.466;11.086;2023-02-15T04:55:20;-0.90;99.90
1415;DHT22;702;49.466;11.086;2023-02-15T04:57:52;-0.90;99.90
1415;DHT22;702;49.466;11.086;2023-02-15T05:00:20;-0.80;99.90
1415;DHT22;702;49.466;11.086;2023-02-15T05:02:51;-0.90;99.90
1415;DHT22;702;49.466;11.086;2023-02-15T05:05:19;-0.90;99.90
1415;DHT22;702;49.466;11.086;2023-02-15T05:07:47;-0.90;99.90
1415;DHT22;702;49.466;11.086;2023-02-15T05:10:14;-0.90;99.90
1415;DHT22;702;49.466;11.086;2023-02-15T05:12:44;-0.90;99.90
1415;DHT22;702;49.466;11.086;2023-02-15T05:15:15;-0.80;99.90
1415;DHT22;702;49.466;11.086;2023-02-15T05:17:57;-0.90;99.90
1415;DHT22;702;49.466;11.086;2023-02-15T05:20:25;-0.90;99.90
1415;DHT22;702;49.466;11.086;2023-02-15T05:22:53;-1.00;99.90
1415;DHT22;702;49.466;11.086;2023-02-15T05:25:22;-1.00;99.90
1415;DHT22;702;49.466;11.086;2023-02-15T05:28:10;-1.00;99.90
1415;DHT22;702;49.466;11.086;2023-02-15T05:30:49;-0.80;99.90
1415;DHT22;702;49.466;11.086;2023-02-15T05:33:17;-0.80;99.90
1415;DHT22;702;49.466;11.086;2023-02-15T05:35:45;-0.80;99.90
1415;DHT22;702;49.466;11.086;2023-02-15T05:38:14;-0.80;99.90
1415;DHT22;702;49.466;11.086;2023-02-15T05:40:41;-0.80;99.90
1415;DHT22;702;49.466;11.086;2023-02-15T05:43:10;-0.80;99.90
1415;DHT22;702;49.466;11.086;2023-02-15T05:45:37;-0.70;99.90
1415;DHT22;702;49.466;11.086;2023-02-15T05:48:05;-0.90;99.90
1415;DHT22;702;49.466;11.086;2023-02-15T05:50:32;-0.80;99.90
1415;DHT22;702;49.466;11.086;2023-02-15T05:53:00;-0.90;99.90
1415;DHT22;702;49.466;11.086;2023-02-15T05:55:27;-0.80;99.90
1415;DHT22;702;49.466;11.086;2023-02-15T05:57:54;-0.80;99.90
1415;DHT22;702;49.466;11.086;2023-02-15T06:00:24;-0.80;99.90
1415;DHT22;702;49.466;11.086;2023-02-15T06:02:51;-0.80;99.90
1415;DHT22;702;49.466;11.086;2023-02-15T06:05:18;-0.90;99.90
1415;DHT22;702;49.466;11.086;2023-02-15T06:07:46;-0.80;99.90
1415;DHT22;702;49.466;11.086;2023-02-15T06:10:13;-0.70;99.90
1415;DHT22;702;49.466;11.086;2023-02-15T06:12:40;-0.70;99.90
1415;DHT22;702;49.466;11.086;2023-02-15T06:15:08;-0.60;99.90
1415;DHT22;702;49.466;11.086;2023-02-15T06:17:37;-0.60;99.90
1415;DHT22;702;49.466;11.086;2023-02-15T06:20:05;-0.70;99.50
1415;DHT22;702;49.466;11.086;2023-02-15T06:22:34;-0.70;99.80
1415;DHT22;702;49.466;11.086;2023-02-15T06:25:01;-0.80;99.90
1415;DHT22;702;49.466;11.086;2023-02-15T06:27:29;-0.60;99.90
1415;DHT22;702;49.466;11.086;2023-02-15T06:29:56;-0.50;99.80
1415;DHT22;702;49.466;11.086;2023-02-15T06:32:23;-0.50;98.10
1415;DHT22;702;49.466;11.086;2023-02-15T06:34:52;-0.50;97.00
1415;DHT22;702;49.466;11.086;2023-02-15T06:37:19;-0.70;97.80
1415;DHT22;702;49.466;11.086;2023-02-15T06:39:47;-0.80;99.00
1415;DHT22;702;49.466;11.086;2023-02-15T06:42:14;-0.90;99.90
1415;DHT22;702;49.466;11.086;2023-02-15T06:44:43;-0.90;99.90
1415;DHT22;702;49.466;11.086;2023-02-15T06:47:11;-0.80;99.90
1415;DHT22;702;49.466;11.086;2023-02-15T06:49:38;-0.80;99.90
1415;DHT22;702;49.466;11.086;2023-02-15T06:52:07;-0.80;98.80
1415;DHT22;702;49.466;11.086;2023-02-15T06:54:34;-0.90;99.50
1415;DHT22;702;49.466;11.086;2023-02-15T06:57:01;-0.90;99.90
1415;DHT22;702;49.466;11.086;2023-02-15T06:59:28;-0.80;99.90
1415;DHT22;702;49.466;11.086;2023-02-15T07:01:56;-0.70;98.60
1415;DHT22;702;49.466;11.086;2023-02-15T07:04:24;-0.60;98.90
1415;DHT22;702;49.466;11.086;2023-02-15T07:06:52;-0.50;97.60
1415;DHT22;702;49.466;11.086;2023-02-15T07:09:22;-0.40;96.40
1415;DHT22;702;49.466;11.086;2023-02-15T07:11:49;-0.50;95.40
1415;DHT22;702;49.466;11.086;2023-02-15T07:14:34;-0.70;96.20
1415;DHT22;702;49.466;11.086;2023-02-15T07:17:01;-0.50;97.40
1415;DHT22;702;49.466;11.086;2023-02-15T07:19:28;-0.40;95.50
1415;DHT22;702;49.466;11.086;2023-02-15T07:21:56;-0.50;94.80
1415;DHT22;702;49.466;11.086;2023-02-15T07:24:24;-0.60;94.70
1415;DHT22;702;49.466;11.086;2023-02-15T07:26:52;-0.70;94.70
1415;DHT22;702;49.466;11.086;2023-02-15T07:29:19;-0.80;96.60
1415;DHT22;702;49.466;11.086;2023-02-15T07:31:46;-0.90;97.10
1415;DHT22;702;49.466;11.086;2023-02-15T07:34:14;-0.80;96.70
1415;DHT22;702;49.466;11.086;2023-02-15T07:36:42;-0.80;97.90
1415;DHT22;702;49.466;11.086;2023-02-15T07:39:10;-0.80;96.40
1415;DHT22;702;49.466;11.086;2023-02-15T07:41:38;-0.70;97.00
1415;DHT22;702;49.466;11.086;2023-02-15T07:44:11;-0.70;96.10
1415;DHT22;702;49.466;11.086;2023-02-15T07:46:39;-0.70;97.20
1415;DHT22;702;49.466;11.086;2023-02-15T07:49:07;-0.60;96.00
1415;DHT22;702;49.466;11.086;2023-02-15T07:51:34;-0.60;95.30
1415;DHT22;702;49.466;11.086;2023-02-15T07:54:02;-0.40;94.20
1415;DHT22;702;49.466;11.086;2023-02-15T07:56:29;-0.30;92.80
1415;DHT22;702;49.466;11.086;2023-02-15T07:58:58;-0.20;93.10
1415;DHT22;702;49.466;11.086;2023-02-15T08:01:31;-0.40;92.30
1415;DHT22;702;49.466;11.086;2023-02-15T08:03:59;-0.40;92.80
1415;DHT22;702;49.466;11.086;2023-02-15T08:06:27;-0.30;93.00
1415;DHT22;702;49.466;11.086;2023-02-15T08:08:55;-0.20;92.50
1415;DHT22;702;49.466;11.086;2023-02-15T08:11:23;-0.10;91.60
1415;DHT22;702;49.466;11.086;2023-02-15T08:14:01;0.10;90.90
1415;DHT22;702;49.466;11.086;2023-02-15T08:16:32;0.20;90.80
1415;DHT22;702;49.466;11.086;2023-02-15T08:19:03;0.20;90.60
1415;DHT22;702;49.466;11.086;2023-02-15T08:21:32;0.10;90.40
1415;DHT22;702;49.466;11.086;2023-02-15T08:24:01;0.10;90.60
1415;DHT22;702;49.466;11.086;2023-02-15T08:26:30;0.20;90.70
1415;DHT22;702;49.466;11.086;2023-02-15T08:28:58;0.20;90.20
1415;DHT22;702;49.466;11.086;2023-02-15T08:31:27;0.30;89.70
1415;DHT22;702;49.466;11.086;2023-02-15T08:33:56;0.40;88.90
1415;DHT22;702;49.466;11.086;2023-02-15T08:36:25;0.60;87.90
1415;DHT22;702;49.466;11.086;2023-02-15T08:38:54;0.50;87.00
1415;DHT22;702;49.466;11.086;2023-02-15T08:41:24;0.40;88.10
1415;DHT22;702;49.466;11.086;2023-02-15T08:43:54;0.20;90.00
1415;DHT22;702;49.466;11.086;2023-02-15T08:46:24;0.30;90.30
1415;DHT22;702;49.466;11.086;2023-02-15T08:48:53;0.30;88.70
1415;DHT22;702;49.466;11.086;2023-02-15T08:51:22;0.50;89.30
1415;DHT22;702;49.466;11.086;2023-02-15T08:53:52;0.70;87.30
1415;DHT22;702;49.466;11.086;2023-02-15T08:56:23;0.50;87.20
1415;DHT22;702;49.466;11.086;2023-02-15T08:58:52;0.40;87.50
1415;DHT22;702;49.466;11.086;2023-02-15T09:01:23;0.40;88.70
1415;DHT22;702;49.466;11.086;2023-02-15T09:03:54;0.40;88.50
1415;DHT22;702;49.466;11.086;2023-02-15T09:06:24;0.50;88.30
1415;DHT22;702;49.466;11.086;2023-02-15T09:08:52;0.50;89.10
1415;DHT22;702;49.466;11.086;2023-02-15T09:11:21;0.70;87.60
1415;DHT22;702;49.466;11.086;2023-02-15T09:13:51;0.80;87.00
1415;DHT22;702;49.466;11.086;2023-02-15T09:16:20;0.90;85.60
1415;DHT22;702;49.466;11.086;2023-02-15T09:18:50;1.00;85.00
1415;DHT22;702;49.466;11.086;2023-02-15T09:21:19;1.00;84.60
1415;DHT22;702;49.466;11.086;2023-02-15T09:23:49;1.00;85.20
1415;DHT22;702;49.466;11.086;2023-02-15T09:26:18;1.10;84.30
1415;DHT22;702;49.466;11.086;2023-02-15T09:28:47;1.20;83.90
1415;DHT22;702;49.466;11.086;2023-02-15T09:31:20;1.40;83.40
1415;DHT22;702;49.466;11.086;2023-02-15T09:33:49;1.20;82.30
1415;DHT22;702;49.466;11.086;2023-02-15T09:36:19;1.00;84.80
1415;DHT22;702;49.466;11.086;2023-02-15T09:38:55;1.10;84.10
1415;DHT22;702;49.466;11.086;2023-02-15T09:41:44;0.90;84.00
1415;DHT22;702;49.466;11.086;2023-02-15T09:44:29;0.60;86.20
1415;DHT22;702;49.466;11.086;2023-02-15T09:47:25;0.60;88.90
1415;DHT22;702;49.466;11.086;2023-02-15T09:50:13;0.80;87.30
1415;DHT22;702;49.466;11.086;2023-02-15T09:53:14;1.00;86.10
1415;DHT22;702;49.466;11.086;2023-02-15T09:56:00;1.40;83.40
1415;DHT22;702;49.466;11.086;2023-02-15T09:58:39;1.50;83.20
1415;DHT22;702;49.466;11.086;2023-02-15T10:01:19;2.00;81.30
1415;DHT22;702;49.466;11.086;2023-02-15T10:04:02;2.10;79.80
1415;DHT22;702;49.466;11.086;2023-02-15T10:06:44;1.80;80.40
1415;DHT22;702;49.466;11.086;2023-02-15T10:09:46;1.80;80.00
1415;DHT22;702;49.466;11.086;2023-02-15T10:15:44;1.80;80.60
1415;DHT22;702;49.466;11.086;2023-02-15T10:18:43;1.90;81.10
1415;DHT22;702;49.466;11.086;2023-02-15T10:21:37;2.40;79.80
1415;DHT22;702;49.466;11.086;2023-02-15T10:24:25;2.70;78.80
1415;DHT22;702;49.466;11.086;2023-02-15T10:27:07;2.50;78.50
1415;DHT22;702;49.466;11.086;2023-02-15T10:29:42;2.60;78.10
1415;DHT22;702;49.466;11.086;2023-02-15T10:32:22;2.80;78.30
1415;DHT22;702;49.466;11.086;2023-02-15T10:34:52;2.80;77.70
1415;DHT22;702;49.466;11.086;2023-02-15T10:40:32;2.60;78.10
1415;DHT22;702;49.466;11.086;2023-02-15T10:43:14;2.50;78.10
1415;DHT22;702;49.466;11.086;2023-02-15T10:46:01;2.50;78.30
1415;DHT22;702;49.466;11.086;2023-02-15T10:48:52;2.60;78.10
1415;DHT22;702;49.466;11.086;2023-02-15T10:51:36;3.00;77.30
1415;DHT22;702;49.466;11.086;2023-02-15T10:54:21;3.00;77.00
1415;DHT22;702;49.466;11.086;2023-02-15T10:56:57;2.70;77.20
1415;DHT22;702;49.466;11.086;2023-02-15T11:02:36;2.60;77.90
1415;DHT22;702;49.466;11.086;2023-02-15T11:05:23;2.50;78.40
1415;DHT22;702;49.466;11.086;2023-02-15T11:07:54;2.60;78.10
1415;DHT22;702;49.466;11.086;2023-02-15T11:10:29;2.60;78.40
1415;DHT22;702;49.466;11.086;2023-02-15T11:12:58;2.80;78.50
1415;DHT22;702;49.466;11.086;2023-02-15T11:15:33;2.80;78.30
1415;DHT22;702;49.466;11.086;2023-02-15T11:18:06;2.80;78.00
1415;DHT22;702;49.466;11.086;2023-02-15T11:20:43;2.90;78.10
1415;DHT22;702;49.466;11.086;2023-02-15T11:23:15;3.00;78.10
1415;DHT22;702;49.466;11.086;2023-02-15T11:25:52;3.30;77.80
1415;DHT22;702;49.466;11.086;2023-02-15T11:28:24;3.60;77.20
1415;DHT22;702;49.466;11.086;2023-02-15T11:30:58;3.60;76.80
1415;DHT22;702;49.466;11.086;2023-02-15T11:33:33;3.40;76.90
1415;DHT22;702;49.466;11.086;2023-02-15T11:36:06;3.40;77.20
1415;DHT22;702;49.466;11.086;2023-02-15T11:38:36;3.60;76.70
1415;DHT22;702;49.466;11.086;2023-02-15T11:41:09;3.60;76.50
1415;DHT22;702;49.466;11.086;2023-02-15T11:43:39;3.50;76.60
1415;DHT22;702;49.466;11.086;2023-02-15T11:46:11;3.50;77.00
1415;DHT22;702;49.466;11.086;2023-02-15T11:48:40;3.60;77.20
1415;DHT22;702;49.466;11.086;2023-02-15T11:51:11;3.80;76.40
1415;DHT22;702;49.466;11.086;2023-02-15T11:53:42;3.60;76.70
1415;DHT22;702;49.466;11.086;2023-02-15T11:56:14;3.60;76.60
1415;DHT22;702;49.466;11.086;2023-02-15T11:58:45;3.70;76.70
1415;DHT22;702;49.466;11.086;2023-02-15T12:01:21;3.60;76.70
1415;DHT22;702;49.466;11.086;2023-02-15T12:03:52;3.60;77.00
1415;DHT22;702;49.466;11.086;2023-02-15T12:06:24;3.60;76.80
1415;DHT22;702;49.466;11.086;2023-02-15T12:09:02;3.40;77.00
1415;DHT22;702;49.466;11.086;2023-02-15T12:11:37;3.50;77.50
1415;DHT22;702;49.466;11.086;2023-02-15T12:14:07;3.50;77.30
1415;DHT22;702;49.466;11.086;2023-02-15T12:16:42;3.50;77.30
1415;DHT22;702;49.466;11.086;2023-02-15T12:19:22;3.40;77.40
1415;DHT22;702;49.466;11.086;2023-02-15T12:21:58;3.10;77.80
1415;DHT22;702;49.466;11.086;2023-02-15T12:24:28;3.10;78.20
1415;DHT22;702;49.466;11.086;2023-02-15T12:27:01;3.10;78.40
1415;DHT22;702;49.466;11.086;2023-02-15T12:29:34;3.20;78.60
1415;DHT22;702;49.466;11.086;2023-02-15T12:32:08;3.20;78.40
1415;DHT22;702;49.466;11.086;2023-02-15T12:34:38;3.10;78.70
1415;DHT22;702;49.466;11.086;2023-02-15T12:37:15;3.10;79.30
1415;DHT22;702;49.466;11.086;2023-02-15T12:39:53;3.40;78.90
1415;DHT22;702;49.466;11.086;2023-02-15T12:42:23;3.40;78.50
1415;DHT22;702;49.466;11.086;2023-02-15T12:44:59;3.50;78.50
1415;DHT22;702;49.466;11.086;2023-02-15T12:47:29;3.30;78.70
1415;DHT22;702;49.466;11.086;2023-02-15T12:50:07;3.30;78.80
1415;DHT22;702;49.466;11.086;2023-02-15T12:52:42;3.40;78.70
1415;DHT22;702;49.466;11.086;2023-02-15T12:55:19;3.50;78.70
1415;DHT22;702;49.466;11.086;2023-02-15T12:58:07;3.60;78.10
1415;DHT22;702;49.466;11.086;2023-02-15T13:00:35;3.80;78.00
1415;DHT22;702;49.466;11.086;2023-02-15T13:03:02;3.80;77.80
1415;DHT22;702;49.466;11.086;2023-02-15T13:05:36;3.90;77.90
1415;DHT22;702;49.466;11.086;2023-02-15T13:08:11;4.00;77.70
1415;DHT22;702;49.466;11.086;2023-02-15T13:10:41;4.10;77.50
1415;DHT22;702;49.466;11.086;2023-02-15T13:13:21;4.20;77.20
1415;DHT22;702;49.466;11.086;2023-02-15T13:15:53;4.10;77.20
1415;DHT22;702;49.466;11.086;2023-02-15T13:18:29;4.10;77.40
1415;DHT22;702;49.466;11.086;2023-02-15T13:21:05;4.10;77.50
1415;DHT22;702;49.466;11.086;2023-02-15T13:23:38;4.20;77.20
1415;DHT22;702;49.466;11.086;2023-02-15T13:26:14;4.00;77.10
1415;DHT22;702;49.466;11.086;2023-02-15T13:28:47;3.90;77.30
1415;DHT22;702;49.466;11.086;2023-02-15T13:31:19;3.90;77.60
1415;DHT22;702;49.466;11.086;2023-02-15T13:33:50;4.00;77.80
1415;DHT22;702;49.466;11.086;2023-02-15T13:36:23;4.20;77.30
1415;DHT22;702;49.466;11.086;2023-02-15T13:39:05;4.20;77.50
1415;DHT22;702;49.466;11.086;2023-02-15T13:41:48;4.40;77.10
1415;DHT22;702;49.466;11.086;2023-02-15T13:44:47;4.50;77.10
1415;DHT22;702;49.466;11.086;2023-02-15T13:47:28;4.50;76.80
1415;DHT22;702;49.466;11.086;2023-02-15T13:50:20;4.60;76.80
1415;DHT22;702;49.466;11.086;2023-02-15T13:53:09;4.60;76.60
1415;DHT22;702;49.466;11.086;2023-02-15T13:55:50;4.60;76.30
1415;DHT22;702;49.466;11.086;2023-02-15T14:01:44;4.60;76.40
1415;DHT22;702;49.466;11.086;2023-02-15T14:04:23;4.50;76.30
1415;DHT22;702;49.466;11.086;2023-02-15T14:07:17;4.60;76.40
1415;DHT22;702;49.466;11.086;2023-02-15T14:10:14;4.60;76.20
1415;DHT22;702;49.466;11.086;2023-02-15T14:13:38;4.50;76.70
1415;DHT22;702;49.466;11.086;2023-02-15T14:16:19;4.50;76.60
1415;DHT22;702;49.466;11.086;2023-02-15T14:18:54;4.60;76.50
1415;DHT22;702;49.466;11.086;2023-02-15T14:21:31;4.60;76.60
1415;DHT22;702;49.466;11.086;2023-02-15T14:24:11;4.70;76.40
1415;DHT22;702;49.466;11.086;2023-02-15T14:26:49;4.70;76.60
1415;DHT22;702;49.466;11.086;2023-02-15T14:29:32;4.60;76.70
1415;DHT22;702;49.466;11.086;2023-02-15T14:32:11;4.50;76.80
1415;DHT22;702;49.466;11.086;2023-02-15T14:34:48;4.60;77.10
1415;DHT22;702;49.466;11.086;2023-02-15T14:37:21;4.70;76.70
1415;DHT22;702;49.466;11.086;2023-02-15T14:39:57;4.70;76.60
1415;DHT22;702;49.466;11.086;2023-02-15T14:42:47;4.90;76.60
1415;DHT22;702;49.466;11.086;2023-02-15T14:45:22;4.70;76.30
1415;DHT22;702;49.466;11.086;2023-02-15T14:48:02;4.60;76.60
1415;DHT22;702;49.466;11.086;2023-02-15T14:50:44;4.70;76.70
1415;DHT22;702;49.466;11.086;2023-02-15T14:56:25;4.50;77.00
1415;DHT22;702;49.466;11.086;2023-02-15T14:59:17;4.50;77.00
1415;DHT22;702;49.466;11.086;2023-02-15T15:01:55;4.60;76.90
1415;DHT22;702;49.466;11.086;2023-02-15T15:04:27;4.60;77.00
1415;DHT22;702;49.466;11.086;2023-02-15T15:07:08;4.60;77.00
1415;DHT22;702;49.466;11.086;2023-02-15T15:09:41;4.70;76.90
1415;DHT22;702;49.466;11.086;2023-02-15T15:12:37;4.70;77.00
1415;DHT22;702;49.466;11.086;2023-02-15T15:15:07;4.60;76.80
1415;DHT22;702;49.466;11.086;2023-02-15T15:17:59;4.60;77.10
1415;DHT22;702;49.466;11.086;2023-02-15T15:20:45;4.50;77.30
1415;DHT22;702;49.466;11.086;2023-02-15T15:26:25;4.70;77.40
1415;DHT22;702;49.466;11.086;2023-02-15T15:28:55;4.60;77.40
1415;DHT22;702;49.466;11.086;2023-02-15T15:31:27;4.60;77.40
1415;DHT22;702;49.466;11.086;2023-02-15T15:34:45;4.50;77.60
1415;DHT22;702;49.466;11.086;2023-02-15T15:37:46;4.40;77.90
1415;DHT22;702;49.466;11.086;2023-02-15T15:40:58;4.30;78.00
1415;DHT22;702;49.466;11.086;2023-02-15T15:44:01;4.20;78.40
1415;DHT22;702;49.466;11.086;2023-02-15T15:47:19;4.10;78.60
1415;DHT22;702;49.466;11.086;2023-02-15T15:49:56;4.10;78.60
1415;DHT22;702;49.466;11.086;2023-02-15T15:52:24;4.00;78.70
1415;DHT22;702;49.466;11.086;2023-02-15T15:54:56;4.00;78.80
1415;DHT22;702;49.466;11.086;2023-02-15T15:57:28;3.90;79.20
1415;DHT22;702;49.466;11.086;2023-02-15T15:59:57;3.80;79.50
1415;DHT22;702;49.466;11.086;2023-02-15T16:02:25;3.80;79.70
1415;DHT22;702;49.466;11.086;2023-02-15T16:04:53;3.70;80.10
1415;DHT22;702;49.466;11.086;2023-02-15T16:07:24;3.60;80.30
1415;DHT22;702;49.466;11.086;2023-02-15T16:09:57;3.60;80.70
1415;DHT22;702;49.466;11.086;2023-02-15T16:12:29;3.50;81.10
1415;DHT22;702;49.466;11.086;2023-02-15T16:14:57;3.60;81.80
1415;DHT22;702;49.466;11.086;2023-02-15T16:17:31;3.50;81.60
1415;DHT22;702;49.466;11.086;2023-02-15T16:20:03;3.50;82.00
1415;DHT22;702;49.466;11.086;2023-02-15T16:22:33;3.40;82.30
1415;DHT22;702;49.466;11.086;2023-02-15T16:25:31;3.30;82.80
1415;DHT22;702;49.466;11.086;2023-02-15T16:28:10;3.20;83.60
1415;DHT22;702;49.466;11.086;2023-02-15T16:30:40;3.10;84.30
1415;DHT22;702;49.466;11.086;2023-02-15T16:33:10;3.00;85.20
1415;DHT22;702;49.466;11.086;2023-02-15T16:35:39;2.90;85.70
1415;DHT22;702;49.466;11.086;2023-02-15T16:38:09;2.80;86.20
1415;DHT22;702;49.466;11.086;2023-02-15T16:40:48;2.80;87.20
1415;DHT22;702;49.466;11.086;2023-02-15T16:43:23;2.70;87.60
1415;DHT22;702;49.466;11.086;2023-02-15T16:45:57;2.60;87.80
1415;DHT22;702;49.466;11.086;2023-02-15T16:48:29;2.60;88.40
1415;DHT22;702;49.466;11.086;2023-02-15T16:50:57;2.40;88.80
1415;DHT22;702;49.466;11.086;2023-02-15T16:53:26;2.40;89.30
1415;DHT22;702;49.466;11.086;2023-02-15T16:55:55;2.30;89.40
1415;DHT22;702;49.466;11.086;2023-02-15T16:58:29;2.20;90.00
1415;DHT22;702;49.466;11.086;2023-02-15T17:01:00;2.20;90.30
1415;DHT22;702;49.466;11.086;2023-02-15T17:03:29;2.10;90.30
1415;DHT22;702;49.466;11.086;2023-02-15T17:05:58;2.00;90.90
1415;DHT22;702;49.466;11.086;2023-02-15T17:08:29;2.00;90.90
1415;DHT22;702;49.466;11.086;2023-02-15T17:11:13;1.80;91.40
1415;DHT22;702;49.466;11.086;2023-02-15T17:14:12;1.80;91.50
1415;DHT22;702;49.466;11.086;2023-02-15T17:16:45;1.70;92.10